
293 participants • 212 Femmes • 81 Hommes
5 licenciés (2%) • 288 non-licenciés (98%)
Temps moyen : 01:45:44
| Position | Nom/Prénom | Tps réel | Tps officiel | Club | Dossard | Catégorie | Km/h | Actions |
|---|---|---|---|---|---|---|---|---|
| 1 | DAUCH ALAIN | 01:09:50 | 01:09:52 | UAGM | 3031 | M8M (1 / 3) | 8.5 | |
| 2 | DOUX FABRICE | 01:09:57 | 01:09:57 | S L UA GUJAN MESTRAS | 3022 | M3M (1 / 11) | 8.5 | |
| 3 | HARBONNIER HENRI | 01:13:33 | 01:13:35 | UAGM | 3280 | M6M (1 / 14) | 8.1 | |
| 4 | CLEMENCEAU REMI | 01:13:34 | 01:13:36 | BO ATHLETISME | 3159 | M1M (1 / 5) | 8.1 | |
| 5 | LHUILLIER ALAIN | 01:14:16 | 01:14:19 | LES RANDONNEURS DES SABLES DU BORN | 3273 | M6M (2 / 14) | 8.0 | |
| 6 | NUNES VARELA LAETITIA | 01:14:49 | 01:14:49 | BISCARROSSE OLYMPIQUE | 3019 | M2F (1 / 27) | 8.0 | |
| 7 | POEYDABAN ANNE-MARIE | 01:16:59 | 01:17:00 | — | 3065 | M4F (1 / 34) | 7.7 | |
| 8 | PETITJEAN PHILLIPPE | 01:18:59 | 01:19:02 | LES RANDONNEURS DES SABLES DU BORN | 3253 | M4M (1 / 11) | 7.5 | |
| 9 | LEVIGNEUR OLIVIER | 01:20:00 | 01:20:07 | — | 3106 | M5M (1 / 16) | 7.5 | |
| 10 | LEROY BRUNO | 01:20:20 | 01:20:32 | LES RANDONNEURS DES SABLES DU BORN | 3264 | M5M (2 / 16) | 7.4 | |
| 11 | FERRET JEAN-GUY | 01:20:44 | 01:20:51 | — | 3103 | M2M (1 / 11) | 7.4 | |
| 12 | MORGADO BEGONIA | 01:21:28 | 01:21:29 | UAGM | 3279 | M6F (1 / 26) | 7.3 | |
| 13 | GAUTHIER NATHALIE | 01:21:28 | 01:21:30 | S L UA GUJAN MESTRAS | 3242 | M6F (2 / 26) | 7.3 | |
| 14 | CARBON NATHALIE | 01:21:39 | 01:21:40 | COURIR O TEICH | 3300 | M4F (2 / 34) | 7.3 | |
| 15 | WIRTH ALAIN | 01:22:45 | 01:22:59 | LES RANDONNEURS DES SABLES DU BORN | 3238 | M5M (3 / 16) | 7.2 | |
| 16 | ANTOINE VINCENT | 01:22:58 | 01:23:00 | — | 3164 | M3M (2 / 11) | 7.2 | |
| 17 | LABAT JACQUES | 01:23:22 | 01:23:25 | BISCARROSSE OLYMPIQUE | 3135 | M6M (3 / 14) | 7.1 | |
| 18 | LEROY SYLVIE | 01:23:13 | 01:23:33 | LES RANDONNEURS DES SABLES DU BORN | 3265 | M5F (1 / 30) | 7.2 | |
| 19 | DEGEORGE LAURENT | 01:23:39 | 01:23:41 | BISCARROSSE OLYMPIQUE | 3142 | M5M (4 / 16) | 7.1 | |
| 20 | PHILIPPOT SANDRINE | 01:23:38 | 01:23:41 | BISCARROSSE OLYMPIQUE | 3067 | M3F (1 / 26) | 7.1 | |
| 21 | DUCHESNE THIERRY | 01:23:40 | 01:23:41 | — | 3316 | M6M (4 / 14) | 7.1 | |
| 22 | DUCHESNE SYLVIE | 01:23:42 | 01:23:47 | — | 3315 | M5F (2 / 30) | 7.1 | |
| 23 | PRIAMI PATRICK | 01:23:49 | 01:23:51 | — | 3051 | M8M (2 / 3) | 7.1 | |
| 24 | BABEAU MIREILLE | 01:24:24 | 01:24:28 | — | 3134 | M7F (1 / 8) | 7.1 | |
| 25 | DESJARIGES TIPHAINE | 01:24:40 | 01:24:42 | — | 3313 | M1F (1 / 29) | 7.0 | |
| 26 | AFFRE AMELIE | 01:25:41 | 01:25:50 | — | 3146 | M1F (2 / 29) | 7.0 | |
| 27 | VIGNAUD NICOLAS | 01:26:19 | 01:26:27 | — | 3327 | M3M (3 / 11) | 6.9 | |
| 28 | SCHLICHTER MARTINE | 01:26:20 | 01:26:28 | RANDONNEURS DES SABLES DU BORN | 3228 | M5F (3 / 30) | 6.9 | |
| 29 | BELLIARD CROISINNE | 01:27:05 | 01:27:07 | — | 3321 | M2F (2 / 27) | 6.8 | |
| 30 | CHATON LUDOVIC | 01:27:07 | 01:27:08 | — | 3323 | M2M (2 / 11) | 6.8 | |
| 31 | MORAND ISABELLE | 01:28:10 | 01:28:12 | UAGM | 3236 | M6F (3 / 26) | 6.8 | |
| 32 | PENCHENAT ADRIEN | 01:28:28 | 01:28:55 | — | 3171 | M2M (3 / 11) | 6.7 | |
| 33 | GIRARDIN CHRISTOPHE | 01:29:28 | 01:29:31 | — | 3041 | M4M (2 / 11) | 6.7 | |
| 34 | WIRTH MURIELLE | 01:29:40 | 01:29:59 | MURIELLE | 4005 | M6F (4 / 26) | 6.6 | |
| 35 | LEPOUDER SANDRINE | 01:29:39 | 01:29:59 | LES RANDONNEURS DES SABLES DU BORN | 3290 | M5F (4 / 30) | 6.6 | |
| 36 | RICHER FLORENCE | 01:29:38 | 01:29:59 | LES RANDONNEURS DES SABLES DU BORN | 3254 | M5F (5 / 30) | 6.6 | |
| 37 | REGNAULT VIRGINIE | 01:28:11 | 01:29:59 | — | 3286 | M2F (3 / 27) | 6.8 | |
| 38 | ROUGIER NOLWEN | 01:29:57 | 01:30:01 | — | 3219 | SEF (1 / 7) | 6.6 | |
| 39 | VERRIER CHRISTOPHE | 01:28:50 | 01:30:11 | — | 3208 | M4M (3 / 11) | 6.7 | |
| 40 | FLEURY SYLVIE | 01:30:05 | 01:30:11 | — | 3105 | M4F (3 / 34) | 6.6 | |
| 41 | BROSSARD CATHERINE | 01:30:03 | 01:30:12 | — | 3050 | M4F (4 / 34) | 6.6 | |
| 42 | CANDAU FRANCOISE | 01:30:21 | 01:30:29 | ELAN ARMAGNAC | 1750 | M5F (6 / 30) | 6.6 | |
| 43 | LACHIONDO/BRASSART MARTINE | 01:30:29 | 01:30:32 | UAGM | 3147 | M6F (5 / 26) | 6.6 | |
| 44 | BARRERO VIRGINIE | 01:30:40 | 01:30:48 | — | 3305 | M2F (4 / 27) | 6.6 | |
| 45 | ORSINI FRANCOISE | 01:30:57 | 01:30:59 | S L UA GUJAN MESTRAS | 4004 | M5F (7 / 30) | 6.5 | |
| 46 | DEWAILLY WENDY | 01:31:08 | 01:31:12 | — | 3218 | M0F (1 / 15) | 6.5 | |
| 47 | SOUCHET LAURENT | 01:31:14 | 01:31:30 | COURIR A AUDENGE | 3127 | M6M (5 / 14) | 6.5 | |
| 48 | CARAVEN JEROME | 01:31:30 | 01:31:50 | MACADAM COLOMIERS | 3024 | M3M (4 / 11) | 6.5 | |
| 49 | POILBLAN PATRICK | 01:31:29 | 01:31:50 | MACADAM COLOMIERS | 57 | M6M (6 / 14) | 6.5 | |
| 50 | GAUDE VALERIE | 01:31:47 | 01:31:51 | S L UA GUJAN MESTRAS | 3220 | M4F (5 / 34) | 6.5 |
Nous utilisons Google Analytics pour mesurer l'audience du site. Acceptez-vous le dépôt de cookies de mesure d'audience ? Vous pouvez changer d'avis à tout moment via « Gestion des cookies » en bas de page. En savoir plus